createdAt,value
2017-07-10T00:00:42.951Z,66.70
2017-07-10T00:03:11.215Z,68.30
2017-07-10T00:05:39.527Z,68.40
2017-07-10T00:08:07.788Z,68.20
2017-07-10T00:10:36.079Z,68.60
2017-07-10T00:13:04.368Z,68.90
2017-07-10T00:15:31.886Z,68.80
2017-07-10T00:18:00.171Z,66.70
2017-07-10T00:20:28.428Z,66.40
2017-07-10T00:22:56.743Z,66.60
2017-07-10T00:25:25.002Z,66.60
2017-07-10T00:27:53.285Z,67.50
2017-07-10T00:30:21.569Z,66.40
2017-07-10T00:32:49.844Z,66.70
2017-07-10T00:35:18.131Z,67.40
2017-07-10T00:37:46.410Z,67.40
2017-07-10T00:40:14.716Z,66.80
2017-07-10T00:42:42.985Z,66.50
2017-07-10T00:45:11.256Z,67.20
2017-07-10T00:47:39.539Z,68.30
2017-07-10T00:50:07.806Z,68.60
2017-07-10T00:52:36.099Z,68.80
2017-07-10T00:55:03.608Z,68.70
2017-07-10T00:57:31.895Z,67.90
2017-07-10T01:00:00.158Z,68.80
2017-07-10T01:02:28.441Z,69.30
2017-07-10T01:04:56.706Z,70.00
2017-07-10T01:07:24.995Z,68.80
2017-07-10T01:09:53.256Z,69.10
2017-07-10T01:12:21.553Z,69.30
2017-07-10T01:14:49.848Z,70.00
2017-07-10T01:17:18.115Z,70.80
2017-07-10T01:19:46.404Z,69.80
2017-07-10T01:22:14.667Z,69.40
2017-07-10T01:24:42.955Z,68.70
2017-07-10T01:27:11.222Z,68.10
2017-07-10T01:29:39.516Z,69.10
2017-07-10T01:32:07.778Z,69.20
2017-07-10T01:34:36.128Z,69.00
2017-07-10T01:37:04.393Z,71.10
2017-07-10T01:39:32.666Z,69.50
2017-07-10T01:42:00.984Z,71.20
2017-07-10T01:44:29.254Z,70.70
2017-07-10T01:46:57.526Z,70.30
2017-07-10T01:49:25.829Z,70.80
2017-07-10T01:51:54.141Z,71.00
2017-07-10T01:54:22.406Z,72.40
2017-07-10T01:56:50.674Z,71.40
2017-07-10T01:59:18.983Z,69.80
2017-07-10T02:01:47.257Z,70.50
2017-07-10T02:04:15.517Z,70.80
2017-07-10T02:06:43.817Z,69.80
2017-07-10T02:09:12.091Z,71.10
2017-07-10T02:11:40.406Z,70.00
2017-07-10T02:14:08.724Z,70.60
2017-07-10T02:16:36.999Z,70.40
2017-07-10T02:19:05.267Z,71.20
2017-07-10T02:21:33.582Z,71.10
2017-07-10T02:24:01.848Z,70.70
2017-07-10T02:26:30.170Z,72.00
2017-07-10T02:28:58.450Z,71.60
2017-07-10T02:31:26.717Z,72.60
2017-07-10T02:33:55.022Z,74.40
2017-07-10T02:36:23.302Z,74.20
2017-07-10T02:38:51.559Z,73.90
2017-07-10T02:41:19.916Z,73.80
2017-07-10T02:43:48.586Z,73.80
2017-07-10T02:46:18.555Z,75.20
2017-07-10T02:48:46.981Z,76.40
2017-07-10T02:51:15.258Z,75.10
2017-07-10T02:53:43.527Z,75.40
2017-07-10T02:56:11.841Z,78.00
2017-07-10T02:58:41.061Z,79.50
2017-07-10T03:01:09.335Z,78.70
2017-07-10T03:03:37.649Z,77.60
2017-07-10T03:06:05.930Z,76.90
2017-07-10T03:08:34.253Z,80.40
2017-07-10T03:11:02.527Z,81.00
2017-07-10T03:13:30.793Z,78.80
2017-07-10T03:15:59.142Z,79.20
2017-07-10T03:18:27.412Z,79.60
2017-07-10T03:20:55.681Z,82.50
2017-07-10T03:23:23.989Z,81.20
2017-07-10T03:25:52.266Z,78.70
2017-07-10T03:28:20.533Z,79.40
2017-07-10T03:30:48.832Z,80.90
2017-07-10T03:33:17.108Z,80.10
2017-07-10T03:35:45.424Z,81.10
2017-07-10T03:38:12.928Z,81.00
2017-07-10T03:40:41.228Z,82.40
2017-07-10T03:43:09.528Z,82.50
2017-07-10T03:45:37.821Z,82.70
2017-07-10T03:48:06.097Z,82.00
2017-07-10T03:50:34.401Z,80.80
2017-07-10T03:53:02.697Z,81.80
2017-07-10T03:55:30.973Z,82.50
2017-07-10T03:57:59.288Z,84.00
2017-07-10T04:00:27.558Z,84.50
2017-07-10T04:02:55.833Z,82.30
2017-07-10T04:05:24.129Z,82.40
2017-07-10T04:07:52.401Z,84.30
2017-07-10T04:10:20.724Z,84.50
2017-07-10T04:12:48.997Z,84.60
2017-07-10T04:15:17.266Z,83.50
2017-07-10T04:17:45.563Z,84.70
2017-07-10T04:20:13.854Z,85.40
2017-07-10T04:22:42.193Z,85.00
2017-07-10T04:25:10.467Z,85.40
2017-07-10T04:27:38.785Z,84.90
2017-07-10T04:30:07.053Z,84.50
2017-07-10T04:32:35.313Z,84.70
2017-07-10T04:35:03.617Z,84.70
2017-07-10T04:37:31.882Z,83.60
2017-07-10T04:40:00.183Z,83.00
2017-07-10T04:42:28.464Z,82.90
2017-07-10T04:44:55.993Z,82.90
2017-07-10T04:47:24.264Z,84.80
2017-07-10T04:49:52.564Z,84.60
2017-07-10T04:52:20.839Z,84.30
2017-07-10T04:54:48.378Z,84.30
2017-07-10T04:57:16.686Z,85.00
2017-07-10T04:59:44.187Z,85.00
2017-07-10T05:02:12.494Z,84.80
2017-07-10T05:04:40.772Z,82.90
2017-07-10T05:07:09.084Z,85.30
2017-07-10T05:09:37.378Z,85.80
2017-07-10T05:12:05.654Z,86.60
2017-07-10T05:14:33.993Z,84.80
2017-07-10T05:17:02.270Z,84.60
2017-07-10T05:19:30.548Z,83.50
2017-07-10T05:21:58.869Z,83.10
2017-07-10T05:24:27.141Z,82.40
2017-07-10T05:26:55.462Z,83.40
2017-07-10T05:29:23.743Z,83.00
2017-07-10T05:31:52.053Z,82.70
2017-07-10T05:34:20.367Z,82.10
2017-07-10T05:36:48.667Z,82.30
2017-07-10T05:39:16.983Z,80.80
2017-07-10T05:41:45.267Z,80.40
2017-07-10T05:44:13.546Z,81.60
2017-07-10T05:46:41.854Z,83.70
2017-07-10T05:49:10.138Z,82.00
2017-07-10T05:51:38.449Z,81.80
2017-07-10T05:54:06.720Z,80.80
2017-07-10T05:56:34.999Z,82.50
2017-07-10T05:59:03.299Z,81.20
2017-07-10T06:01:31.583Z,81.90
2017-07-10T06:03:59.126Z,81.90
2017-07-10T06:06:27.412Z,82.50
2017-07-10T06:08:55.716Z,83.30
2017-07-10T06:11:23.990Z,81.40
2017-07-10T06:13:52.268Z,81.90
2017-07-10T06:16:20.577Z,79.90
2017-07-10T06:18:48.865Z,80.80
2017-07-10T06:21:17.399Z,81.10
2017-07-10T06:23:45.708Z,80.80
2017-07-10T06:26:13.985Z,82.40
2017-07-10T06:28:42.286Z,83.80
2017-07-10T06:31:10.567Z,83.80
2017-07-10T06:33:38.904Z,81.80
2017-07-10T06:36:07.189Z,82.20
2017-07-10T06:38:35.465Z,82.70
2017-07-10T06:41:03.774Z,81.30
2017-07-10T06:43:32.060Z,81.00
2017-07-10T06:46:00.381Z,80.70
2017-07-10T06:48:28.692Z,80.50
2017-07-10T06:50:57.029Z,83.10
2017-07-10T06:53:25.317Z,81.80
2017-07-10T06:55:53.606Z,81.20
2017-07-10T06:58:21.923Z,80.00
2017-07-10T07:00:50.205Z,80.20
2017-07-10T07:03:18.496Z,80.20
2017-07-10T07:05:46.866Z,80.00
2017-07-10T07:08:15.153Z,81.10
2017-07-10T07:10:43.439Z,81.20
2017-07-10T07:13:11.755Z,80.00
2017-07-10T07:15:39.339Z,80.10
2017-07-10T07:18:07.627Z,80.20
2017-07-10T07:20:35.914Z,82.00
2017-07-10T07:23:04.234Z,80.90
2017-07-10T07:25:32.509Z,80.90
2017-07-10T07:28:00.822Z,80.60
2017-07-10T07:30:29.143Z,81.80
2017-07-10T07:32:57.421Z,80.10
2017-07-10T07:35:25.765Z,79.80
2017-07-10T07:37:54.043Z,80.30
2017-07-10T07:40:22.331Z,78.70
2017-07-10T07:42:50.674Z,78.90
2017-07-10T07:45:18.958Z,78.70
2017-07-10T07:47:47.250Z,80.10
2017-07-10T07:50:15.572Z,80.90
2017-07-10T07:52:44.021Z,79.50
2017-07-10T07:55:12.320Z,79.90
2017-07-10T07:57:40.609Z,80.10
2017-07-10T08:00:08.915Z,81.20
2017-07-10T08:02:37.298Z,79.90
2017-07-10T08:05:05.583Z,79.80
2017-07-10T08:07:33.868Z,79.10
2017-07-10T08:10:02.205Z,79.10
2017-07-10T08:12:30.482Z,79.30
2017-07-10T08:14:58.764Z,77.80
2017-07-10T08:17:27.090Z,78.70
2017-07-10T08:19:55.374Z,78.30
2017-07-10T08:22:23.652Z,77.50
2017-07-10T08:24:51.972Z,77.10
2017-07-10T08:27:20.256Z,75.40
2017-07-10T08:29:48.533Z,75.40
2017-07-10T08:32:16.860Z,73.30
2017-07-10T08:34:45.137Z,73.60
2017-07-10T08:37:13.442Z,73.20
2017-07-10T08:39:41.788Z,75.10
2017-07-10T08:42:10.072Z,75.00
2017-07-10T08:44:38.344Z,76.40
2017-07-10T08:47:06.661Z,73.60
2017-07-10T08:49:34.939Z,72.60
2017-07-10T08:52:03.214Z,72.00
2017-07-10T08:54:31.533Z,71.50
2017-07-10T08:56:59.817Z,70.00
2017-07-10T08:59:28.100Z,68.90
2017-07-10T09:01:56.410Z,69.10
2017-07-10T09:04:24.680Z,69.70
2017-07-10T09:06:52.961Z,70.10
2017-07-10T09:09:21.322Z,70.20
2017-07-10T09:11:49.605Z,69.80
2017-07-10T09:14:17.872Z,68.70
2017-07-10T09:16:46.184Z,69.00
2017-07-10T09:19:14.476Z,71.20
2017-07-10T09:21:42.754Z,69.70
2017-07-10T09:24:11.082Z,70.10
2017-07-10T09:26:39.366Z,68.30
2017-07-10T09:29:07.647Z,67.90
2017-07-10T09:31:35.953Z,68.70
2017-07-10T09:34:04.232Z,68.10
2017-07-10T09:36:32.563Z,67.70
2017-07-10T09:39:00.847Z,68.10
2017-07-10T09:41:29.146Z,68.60
2017-07-10T09:43:57.503Z,69.60
2017-07-10T09:46:25.793Z,68.80
2017-07-10T09:48:54.061Z,69.30
2017-07-10T09:51:22.381Z,69.50
2017-07-10T09:53:50.670Z,67.60
2017-07-10T09:56:18.177Z,67.10
2017-07-10T09:58:46.510Z,67.20
2017-07-10T10:01:14.802Z,66.70
2017-07-10T10:03:43.086Z,68.10
2017-07-10T10:06:11.416Z,67.20
2017-07-10T10:08:39.703Z,66.30
2017-07-10T10:11:07.989Z,65.70
2017-07-10T10:13:36.313Z,67.60
2017-07-10T10:16:04.596Z,67.20
2017-07-10T10:18:32.878Z,66.00
2017-07-10T10:21:01.189Z,66.60
2017-07-10T10:23:29.465Z,66.10
2017-07-10T10:25:57.755Z,66.30
2017-07-10T10:28:26.087Z,67.20
2017-07-10T10:30:54.366Z,67.10
2017-07-10T10:33:22.649Z,66.80
2017-07-10T10:35:50.970Z,66.40
2017-07-10T10:38:19.252Z,64.60
2017-07-10T10:40:47.529Z,65.80
2017-07-10T10:43:15.887Z,65.20
2017-07-10T10:45:44.173Z,66.00
2017-07-10T10:48:12.456Z,66.40
2017-07-10T10:50:40.804Z,64.00
2017-07-10T10:53:09.085Z,64.70
2017-07-10T10:55:37.374Z,63.50
2017-07-10T10:58:05.698Z,64.30
2017-07-10T11:00:33.985Z,63.00
2017-07-10T11:03:02.268Z,63.20
2017-07-10T11:05:30.577Z,64.70
2017-07-10T11:07:58.865Z,62.90
2017-07-10T11:10:27.147Z,64.50
2017-07-10T11:12:55.458Z,64.40
2017-07-10T11:15:23.741Z,62.80
2017-07-10T11:17:51.292Z,62.80
2017-07-10T11:20:19.572Z,63.90
2017-07-10T11:22:47.845Z,60.40
2017-07-10T11:25:16.190Z,59.50
2017-07-10T11:27:44.482Z,59.00
2017-07-10T11:30:12.762Z,58.10
2017-07-10T11:32:41.077Z,58.00
2017-07-10T11:35:09.353Z,57.90
2017-07-10T11:37:37.625Z,56.60
2017-07-10T11:40:05.974Z,57.70
2017-07-10T11:42:34.251Z,56.90
2017-07-10T11:45:02.609Z,56.50
2017-07-10T11:47:30.923Z,56.40
2017-07-10T11:49:59.200Z,56.40
2017-07-10T11:52:27.485Z,53.30
2017-07-10T11:54:55.817Z,53.40
2017-07-10T11:57:24.080Z,46.80
2017-07-10T11:59:52.353Z,48.80
2017-07-10T12:02:20.664Z,50.20
2017-07-10T12:04:48.933Z,49.50
2017-07-10T12:07:17.211Z,46.00
2017-07-10T12:09:45.537Z,47.00
2017-07-10T12:12:13.822Z,50.40
2017-07-10T12:14:42.104Z,52.20
2017-07-10T12:17:10.452Z,49.70
2017-07-10T12:19:37.979Z,49.20
2017-07-10T12:22:06.259Z,49.70
2017-07-10T12:24:34.586Z,50.40
2017-07-10T12:27:02.876Z,50.50
2017-07-10T12:29:31.145Z,51.20
2017-07-10T12:31:59.459Z,51.30
2017-07-10T12:34:27.743Z,48.40
2017-07-10T12:36:56.062Z,48.50
2017-07-10T12:39:24.330Z,50.00
2017-07-10T12:41:53.415Z,46.80
2017-07-10T12:44:21.738Z,48.20
2017-07-10T12:46:50.007Z,49.60
2017-07-10T12:49:18.297Z,48.80
2017-07-10T12:51:46.642Z,46.70
2017-07-10T12:54:14.917Z,47.00
2017-07-10T12:56:43.221Z,46.10
2017-07-10T12:59:11.859Z,48.00
2017-07-10T13:01:40.143Z,46.90
2017-07-10T13:04:08.417Z,49.10
2017-07-10T13:06:36.722Z,49.20
2017-07-10T13:09:05.006Z,48.30
2017-07-10T13:11:33.340Z,48.10
2017-07-10T13:14:01.625Z,49.30
2017-07-10T13:16:29.901Z,49.80
2017-07-10T13:18:58.225Z,48.70
2017-07-10T13:21:26.502Z,49.40
2017-07-10T13:23:54.776Z,48.60
2017-07-10T13:26:23.234Z,49.20
2017-07-10T13:28:50.804Z,49.80
2017-07-10T13:31:19.094Z,48.00
2017-07-10T13:33:47.373Z,47.50
2017-07-10T13:36:15.691Z,48.60
2017-07-10T13:38:44.021Z,46.70
2017-07-10T13:41:12.306Z,47.10
2017-07-10T13:43:40.639Z,47.10
2017-07-10T13:46:08.905Z,49.00
2017-07-10T13:48:37.181Z,49.10
2017-07-10T13:51:05.502Z,49.80
2017-07-10T13:53:33.777Z,49.60
2017-07-10T13:56:02.054Z,49.50
2017-07-10T13:58:30.408Z,50.30
2017-07-10T14:00:58.686Z,49.40
2017-07-10T14:03:26.964Z,49.60
2017-07-10T14:05:55.277Z,50.30
2017-07-10T14:08:23.560Z,51.10
2017-07-10T14:10:52.171Z,52.00
2017-07-10T14:13:20.445Z,51.90
2017-07-10T14:15:48.726Z,52.10
2017-07-10T14:18:17.041Z,52.80
2017-07-10T14:20:45.329Z,52.50
2017-07-10T14:23:13.627Z,52.00
2017-07-10T14:25:41.938Z,52.70
2017-07-10T14:28:10.223Z,53.30
2017-07-10T14:30:38.505Z,52.50
2017-07-10T14:33:06.827Z,54.10
2017-07-10T14:35:35.103Z,53.30
2017-07-10T14:38:03.380Z,50.40
2017-07-10T14:40:31.712Z,49.50
2017-07-10T14:42:59.986Z,51.70
2017-07-10T14:45:28.263Z,48.80
2017-07-10T14:47:56.571Z,50.20
2017-07-10T14:50:24.845Z,48.40
2017-07-10T14:52:53.128Z,48.20
2017-07-10T14:55:21.434Z,48.20
2017-07-10T14:57:49.754Z,49.50
2017-07-10T15:00:18.031Z,47.90
2017-07-10T15:02:46.313Z,47.20
2017-07-10T15:05:14.637Z,46.10
2017-07-10T15:07:42.914Z,46.10
2017-07-10T15:10:11.202Z,44.50
2017-07-10T15:12:39.503Z,45.80
2017-07-10T15:15:07.777Z,46.20
2017-07-10T15:17:36.081Z,46.00
2017-07-10T15:20:04.352Z,43.70
2017-07-10T15:22:32.673Z,45.30
2017-07-10T15:25:00.938Z,43.90
2017-07-10T15:27:29.217Z,45.60
2017-07-10T15:29:57.534Z,43.20
2017-07-10T15:32:25.808Z,45.30
2017-07-10T15:34:54.082Z,44.20
2017-07-10T15:37:22.402Z,44.10
2017-07-10T15:39:50.673Z,44.20
2017-07-10T15:42:18.941Z,46.20
2017-07-10T15:44:47.258Z,45.30
2017-07-10T15:47:15.596Z,45.60
2017-07-10T15:49:43.868Z,45.90
2017-07-10T15:52:12.180Z,44.60
2017-07-10T15:54:40.458Z,45.60
2017-07-10T15:57:08.728Z,45.00
2017-07-10T15:59:37.058Z,45.30
2017-07-10T16:02:05.334Z,44.70
2017-07-10T16:04:33.607Z,44.70
2017-07-10T16:07:01.925Z,45.10
2017-07-10T16:09:30.210Z,46.10
2017-07-10T16:11:58.486Z,45.80
2017-07-10T16:14:26.804Z,46.30
2017-07-10T16:16:55.080Z,46.90
2017-07-10T16:19:23.354Z,47.30
2017-07-10T16:21:51.670Z,46.50
2017-07-10T16:24:19.952Z,45.80
2017-07-10T16:26:48.227Z,45.80
2017-07-10T16:29:16.553Z,46.50
2017-07-10T16:31:44.829Z,46.90
2017-07-10T16:34:13.102Z,47.50
2017-07-10T16:36:41.462Z,48.80
2017-07-10T16:39:09.755Z,50.90
2017-07-10T16:41:38.045Z,52.70
2017-07-10T16:44:05.602Z,52.60
2017-07-10T16:46:33.880Z,53.60
2017-07-10T16:49:02.196Z,54.50
2017-07-10T16:51:30.537Z,55.80
2017-07-10T16:53:58.829Z,56.00
2017-07-10T16:56:27.129Z,56.20
2017-07-10T16:58:56.388Z,56.90
2017-07-10T17:01:24.710Z,57.40
2017-07-10T17:03:52.256Z,57.40
2017-07-10T17:06:19.829Z,57.60
2017-07-10T17:08:48.126Z,58.00
2017-07-10T17:11:16.434Z,58.50
2017-07-10T17:13:44.775Z,59.00
2017-07-10T17:16:13.069Z,59.10
2017-07-10T17:18:41.352Z,59.30
2017-07-10T17:21:09.709Z,59.20
2017-07-10T17:23:37.996Z,59.70
2017-07-10T17:26:06.277Z,60.00
2017-07-10T17:28:34.592Z,60.20
2017-07-10T17:31:02.878Z,61.00
2017-07-10T17:33:31.158Z,61.20
2017-07-10T17:35:59.474Z,61.40
2017-07-10T17:38:27.788Z,61.80
2017-07-10T17:40:56.987Z,61.40
2017-07-10T17:43:25.280Z,60.80
2017-07-10T17:45:53.613Z,60.30
2017-07-10T17:48:21.140Z,60.20
2017-07-10T17:50:49.429Z,62.10
2017-07-10T17:53:17.854Z,62.40
2017-07-10T17:55:46.143Z,62.50
2017-07-10T17:58:14.433Z,63.00
2017-07-10T18:00:42.775Z,63.70
2017-07-10T18:03:11.078Z,64.30
2017-07-10T18:05:39.360Z,64.90
2017-07-10T18:08:07.721Z,65.60
2017-07-10T18:10:36.018Z,66.50
2017-07-10T18:13:04.307Z,67.20
2017-07-10T18:15:32.655Z,66.50
2017-07-10T18:18:00.931Z,65.50
2017-07-10T18:20:29.223Z,64.90
2017-07-10T18:22:57.551Z,65.00
2017-07-10T18:25:25.824Z,65.20
2017-07-10T18:27:54.096Z,65.60
2017-07-10T18:30:22.409Z,65.60
2017-07-10T18:32:50.682Z,66.70
2017-07-10T18:35:18.950Z,66.30
2017-07-10T18:37:46.486Z,66.30
2017-07-10T18:40:14.750Z,66.20
2017-07-10T18:42:43.052Z,68.40
2017-07-10T18:45:11.325Z,67.10
2017-07-10T18:47:39.601Z,67.50
2017-07-10T18:50:07.917Z,70.00
2017-07-10T18:52:36.252Z,70.00
2017-07-10T18:55:04.573Z,70.50
2017-07-10T18:57:32.846Z,71.00
2017-07-10T19:00:00.340Z,70.90
2017-07-10T19:02:28.644Z,73.10
2017-07-10T19:04:56.150Z,73.10
2017-07-10T19:07:24.440Z,73.90
2017-07-10T19:09:51.984Z,73.80
2017-07-10T19:12:20.256Z,73.30
2017-07-10T19:14:48.520Z,74.70
2017-07-10T19:17:16.864Z,74.50
2017-07-10T19:19:45.147Z,75.40
2017-07-10T19:22:13.429Z,75.00
2017-07-10T19:24:41.002Z,75.00
2017-07-10T19:27:08.507Z,74.70
2017-07-10T19:29:36.781Z,75.00
2017-07-10T19:32:05.105Z,75.50
2017-07-10T19:34:34.413Z,76.10
2017-07-10T19:37:01.925Z,76.10
2017-07-10T19:39:30.241Z,77.70
2017-07-10T19:41:58.526Z,78.30
2017-07-10T19:44:26.804Z,78.60
2017-07-10T19:46:55.129Z,79.10
2017-07-10T19:49:23.459Z,80.20
2017-07-10T19:51:51.744Z,80.10
2017-07-10T19:54:20.138Z,80.40
2017-07-10T19:56:48.457Z,80.10
2017-07-10T19:59:16.733Z,80.40
2017-07-10T20:01:45.049Z,79.70
2017-07-10T20:04:13.356Z,79.80
2017-07-10T20:06:41.634Z,80.20
2017-07-10T20:09:09.956Z,80.50
2017-07-10T20:11:40.291Z,81.00
2017-07-10T20:14:08.585Z,81.30
2017-07-10T20:16:36.147Z,81.30
2017-07-10T20:19:04.423Z,80.90
2017-07-10T20:21:32.693Z,82.00
2017-07-10T20:24:01.024Z,80.80
2017-07-10T20:26:30.366Z,80.80
2017-07-10T20:28:57.881Z,80.80
2017-07-10T20:31:26.205Z,80.60
2017-07-10T20:33:54.483Z,80.60
2017-07-10T20:36:22.757Z,80.50
2017-07-10T20:38:51.128Z,80.90
2017-07-10T20:41:20.433Z,80.90
2017-07-10T20:43:48.705Z,80.70
2017-07-10T20:46:17.029Z,80.80
2017-07-10T20:48:45.306Z,81.10
2017-07-10T20:51:13.581Z,80.90
2017-07-10T20:53:41.895Z,80.50
2017-07-10T20:56:13.568Z,80.10
2017-07-10T20:58:41.889Z,80.00
2017-07-10T21:01:10.173Z,80.00
2017-07-10T21:03:38.453Z,80.10
2017-07-10T21:06:06.840Z,80.20
2017-07-10T21:08:35.106Z,80.30
2017-07-10T21:11:03.381Z,80.00
2017-07-10T21:13:31.685Z,80.00
2017-07-10T21:15:59.990Z,79.80
2017-07-10T21:18:28.292Z,79.50
2017-07-10T21:20:56.559Z,79.60
2017-07-10T21:23:24.844Z,79.80
2017-07-10T21:25:54.161Z,79.90
2017-07-10T21:28:22.422Z,79.80
2017-07-10T21:30:50.698Z,79.90
2017-07-10T21:33:19.005Z,79.50
2017-07-10T21:35:47.319Z,79.80
2017-07-10T21:38:15.588Z,79.70
2017-07-10T21:40:43.940Z,80.00
2017-07-10T21:43:12.205Z,81.20
2017-07-10T21:45:41.593Z,80.90
2017-07-10T21:48:09.897Z,79.70
2017-07-10T21:50:38.195Z,80.60
2017-07-10T21:53:06.470Z,80.90
2017-07-10T21:55:34.811Z,81.00
2017-07-10T21:58:03.085Z,80.70
2017-07-10T22:00:31.404Z,80.80
2017-07-10T22:02:59.714Z,80.60
2017-07-10T22:05:27.990Z,80.60
2017-07-10T22:07:56.267Z,81.00
2017-07-10T22:10:24.565Z,80.70
2017-07-10T22:12:52.877Z,81.10
2017-07-10T22:15:21.239Z,80.90
2017-07-10T22:17:49.485Z,80.80
2017-07-10T22:20:17.763Z,81.40
2017-07-10T22:22:46.064Z,81.40
2017-07-10T22:25:14.378Z,81.30
2017-07-10T22:27:42.645Z,81.90
2017-07-10T22:30:10.986Z,82.10
2017-07-10T22:32:39.253Z,82.20
2017-07-10T22:35:07.521Z,81.70
2017-07-10T22:37:35.833Z,82.20
2017-07-10T22:40:04.141Z,81.90
2017-07-10T22:42:32.409Z,81.70
2017-07-10T22:45:00.724Z,82.20
2017-07-10T22:47:29.001Z,82.40
2017-07-10T22:49:57.315Z,81.80
2017-07-10T22:52:25.583Z,82.00
2017-07-10T22:54:53.850Z,82.20
2017-07-10T22:57:22.144Z,82.10
2017-07-10T22:59:50.415Z,82.30
2017-07-10T23:02:18.736Z,82.50
2017-07-10T23:04:46.228Z,82.50
2017-07-10T23:07:14.497Z,82.80
2017-07-10T23:09:42.802Z,83.10
2017-07-10T23:12:11.072Z,82.80
2017-07-10T23:14:39.394Z,83.00
2017-07-10T23:17:07.710Z,83.00
2017-07-10T23:19:37.996Z,83.00
2017-07-10T23:22:06.311Z,83.30
2017-07-10T23:24:34.576Z,83.70
2017-07-10T23:27:02.837Z,83.60
2017-07-10T23:29:31.173Z,83.30
2017-07-10T23:31:59.437Z,84.00
2017-07-10T23:34:27.707Z,84.00
2017-07-10T23:36:56.008Z,84.40
2017-07-10T23:39:25.266Z,84.20
2017-07-10T23:41:53.542Z,84.10
2017-07-10T23:44:21.896Z,84.70
2017-07-10T23:46:50.168Z,84.40
2017-07-10T23:49:18.434Z,84.70
2017-07-10T23:51:46.729Z,84.50
2017-07-10T23:54:15.952Z,84.70
2017-07-10T23:56:44.254Z,85.10
2017-07-10T23:59:12.523Z,85.30
